Terminal Aerodrome Forecast
Issued by NWS Twin Cities, MN

Home | Current Version | Previous Version | Text Only | Print | Product List | Glossary Off
Versions: 1 2 3 4 5 6 7 8 9 10 11 12 13 14 15 16 17 18 19 20 21 22 23 24 25 26 27

319
FTUS43 KMPX 210520
TAFMSP
TAF
KMSP 210520Z 2106/2212 17013G20KT P6SM VCSH SCT150 WS020/19050KT
     FM211000 17011KT P6SM VCSH OVC070
     FM211200 15011KT P6SM -SHRA OVC045
     FM211600 16015G24KT P6SM OVC020
     FM212100 17014KT 6SM -RA VCTS OVC020CB
     FM220000 21006KT 6SM -RA BR OVC025
     FM220400 26005KT 6SM BR OVC040
     FM220800 27004KT P6SM SCT120=

USA.gov is the U.S. government's official web portal to all federal, state and local government web resources and services.